Terminal Aerodrome Forecast
Issued by NWS St Louis, MO

Home | Current Version | Previous Version | Graphics & Text | Print | Product List | Glossary On
Versions: 1 2 3 4 5 6 7 8 9 10 11 12 13 14 15 16 17 18 19 20 21 22 23 24 25 26 27
000
FTUS43 KLSX 291135
TAFSTL
TAF
KSTL 291135Z 2912/3018 28006KT P6SM SCT040
     FM291500 32007KT P6SM SCT040 SCT080
     FM291800 33007KT P6SM VCTS BKN040CB
     FM292100 35009KT P6SM SCT050
     FM300200 34005KT P6SM SCT150=

USA.gov is the U.S. government's official web portal to all federal, state and local government web resources and services.